createdAt,value
2019-01-20T00:00:17.116Z,70.60
2019-01-20T00:02:45.572Z,71.00
2019-01-20T00:05:14.650Z,70.90
2019-01-20T00:07:43.592Z,70.80
2019-01-20T00:10:13.275Z,70.70
2019-01-20T00:12:41.925Z,70.60
2019-01-20T00:15:13.840Z,70.20
2019-01-20T00:17:42.473Z,70.20
2019-01-20T00:20:11.261Z,70.30
2019-01-20T00:22:39.666Z,70.10
2019-01-20T00:25:10.261Z,69.90
2019-01-20T00:27:38.977Z,70.00
2019-01-20T00:30:11.062Z,69.90
2019-01-20T00:32:40.250Z,70.10
2019-01-20T00:35:08.788Z,70.10
2019-01-20T00:37:37.468Z,70.30
2019-01-20T00:40:11.760Z,70.40
2019-01-20T00:42:40.473Z,70.20
2019-01-20T00:45:11.980Z,70.10
2019-01-20T00:47:40.419Z,70.00
2019-01-20T00:50:11.132Z,70.20
2019-01-20T00:52:39.634Z,70.50
2019-01-20T00:55:11.836Z,70.60
2019-01-20T00:57:41.069Z,70.50
2019-01-20T01:00:21.794Z,70.20
2019-01-20T01:02:50.337Z,70.70
2019-01-20T01:05:20.113Z,70.80
2019-01-20T01:07:50.936Z,71.00
2019-01-20T01:10:20.223Z,71.00
2019-01-20T01:12:49.618Z,71.10
2019-01-20T01:15:18.188Z,71.00
2019-01-20T01:17:46.615Z,70.80
2019-01-20T01:20:17.810Z,71.00
2019-01-20T01:22:46.512Z,70.90
2019-01-20T01:25:16.054Z,70.60
2019-01-20T01:27:44.581Z,71.00
2019-01-20T01:30:23.547Z,71.10
2019-01-20T01:32:52.010Z,70.90
2019-01-20T01:35:20.695Z,70.90
2019-01-20T01:37:49.431Z,70.60
2019-01-20T01:40:19.333Z,70.60
2019-01-20T01:42:48.039Z,70.80
2019-01-20T01:45:18.797Z,71.10
2019-01-20T01:47:48.443Z,71.20
2019-01-20T01:50:18.022Z,71.50
2019-01-20T01:52:46.530Z,71.60
2019-01-20T01:55:15.834Z,71.70
2019-01-20T01:57:44.490Z,71.70
2019-01-20T02:00:18.833Z,71.70
2019-01-20T02:02:47.619Z,71.70
2019-01-20T02:05:16.826Z,72.10
2019-01-20T02:07:45.319Z,72.10
2019-01-20T02:10:16.306Z,71.90
2019-01-20T02:12:44.853Z,71.70
2019-01-20T02:15:15.921Z,71.90
2019-01-20T02:17:44.394Z,71.90
2019-01-20T02:20:15.228Z,71.80
2019-01-20T02:22:43.679Z,71.70
2019-01-20T02:27:58.731Z,71.40
2019-01-20T02:30:39.294Z,70.50
2019-01-20T02:33:20.466Z,70.40
2019-01-20T02:36:20.176Z,70.30
2019-01-20T02:39:00.952Z,69.60
2019-01-20T02:41:41.949Z,69.40
2019-01-20T02:44:22.652Z,69.00
2019-01-20T02:47:03.458Z,68.30
2019-01-20T02:49:43.997Z,68.60
2019-01-20T02:52:24.753Z,68.60
2019-01-20T02:55:08.691Z,67.80
2019-01-20T03:00:50.751Z,67.60
2019-01-20T03:03:50.964Z,67.70
2019-01-20T03:09:55.772Z,66.70
2019-01-20T03:12:36.666Z,66.60
2019-01-20T03:21:32.663Z,66.30
2019-01-20T03:27:29.016Z,65.80
2019-01-20T03:30:09.523Z,65.80
2019-01-20T03:32:51.519Z,65.70
2019-01-20T03:35:31.736Z,65.70
2019-01-20T03:38:13.945Z,65.70
2019-01-20T03:44:33.333Z,65.70
2019-01-20T03:59:43.009Z,65.60
2019-01-20T04:02:23.914Z,65.70
2019-01-20T04:08:09.347Z,65.90
2019-01-20T04:10:50.093Z,65.80
2019-01-20T04:13:30.971Z,65.80
2019-01-20T04:16:12.103Z,65.80
2019-01-20T04:21:57.497Z,65.90
2019-01-20T04:24:38.417Z,65.90
2019-01-20T04:30:24.638Z,65.70
2019-01-20T04:36:22.711Z,65.80
2019-01-20T04:39:03.948Z,65.90
2019-01-20T04:41:44.556Z,66.30
2019-01-20T04:44:25.316Z,66.40
2019-01-20T04:47:06.026Z,66.40
2019-01-20T04:59:18.431Z,66.90
2019-01-20T05:01:59.672Z,66.90
2019-01-20T05:04:41.097Z,67.30
2019-01-20T05:07:21.542Z,67.20
2019-01-20T05:10:02.289Z,67.30
2019-01-20T05:16:03.453Z,67.40
2019-01-20T05:22:02.851Z,67.50
2019-01-20T05:24:43.792Z,67.40
2019-01-20T05:27:24.591Z,67.70
2019-01-20T05:36:30.102Z,67.60
2019-01-20T05:39:10.975Z,67.70
2019-01-20T05:41:51.769Z,67.90
2019-01-20T05:47:50.265Z,67.60
2019-01-20T05:53:12.751Z,67.50
2019-01-20T05:55:53.515Z,67.50
2019-01-20T06:01:38.377Z,67.20
2019-01-20T06:04:19.031Z,67.20
2019-01-20T06:07:00.145Z,67.20
2019-01-20T06:09:40.958Z,67.50
2019-01-20T06:12:21.592Z,67.40
2019-01-20T06:18:21.375Z,66.80
2019-01-20T06:21:01.963Z,66.60
2019-01-20T06:26:46.855Z,66.40
2019-01-20T06:29:27.616Z,66.40
2019-01-20T06:32:08.582Z,66.80
2019-01-20T06:34:49.516Z,66.80
2019-01-20T06:37:29.640Z,66.80
2019-01-20T06:40:29.661Z,66.70
2019-01-20T06:43:10.618Z,66.80
2019-01-20T06:46:10.734Z,66.60
2019-01-20T06:51:45.090Z,66.90
2019-01-20T06:54:25.643Z,67.00
2019-01-20T06:57:06.412Z,67.10
2019-01-20T06:59:46.953Z,67.00
2019-01-20T07:02:27.619Z,66.90
2019-01-20T07:05:08.319Z,67.10
2019-01-20T07:07:49.465Z,67.10
2019-01-20T07:10:30.616Z,67.10
2019-01-20T07:13:11.503Z,67.20
2019-01-20T07:15:51.967Z,66.70
2019-01-20T07:18:32.458Z,66.80
2019-01-20T07:21:13.380Z,66.70
2019-01-20T07:30:04.646Z,66.60
2019-01-20T07:36:22.174Z,67.00
2019-01-20T07:39:03.100Z,67.00
2019-01-20T07:41:43.582Z,66.70
2019-01-20T07:44:43.542Z,66.70
2019-01-20T07:47:24.135Z,66.60
2019-01-20T07:53:07.081Z,66.50
2019-01-20T07:55:47.780Z,66.70
2019-01-20T07:58:28.937Z,66.80
2019-01-20T08:04:30.623Z,66.80
2019-01-20T08:07:11.480Z,66.40
2019-01-20T08:09:52.572Z,66.50
2019-01-20T08:12:33.104Z,66.90
2019-01-20T08:15:14.183Z,66.50
2019-01-20T08:17:54.846Z,66.30
2019-01-20T08:20:35.786Z,66.20
2019-01-20T08:33:01.115Z,65.90
2019-01-20T08:35:42.485Z,65.60
2019-01-20T08:38:23.080Z,65.70
2019-01-20T08:43:47.356Z,65.70
2019-01-20T08:46:27.870Z,65.70
2019-01-20T08:49:08.592Z,65.40
2019-01-20T08:52:08.656Z,65.80
2019-01-20T08:54:49.535Z,66.20
2019-01-20T08:57:29.826Z,66.20
2019-01-20T09:00:29.993Z,65.70
2019-01-20T09:03:29.837Z,65.60
2019-01-20T09:06:10.197Z,65.10
2019-01-20T09:11:33.121Z,64.50
2019-01-20T09:20:38.019Z,63.80
2019-01-20T09:26:58.529Z,64.00
2019-01-20T09:29:40.890Z,64.30
2019-01-20T09:32:21.194Z,64.30
2019-01-20T09:38:19.944Z,64.80
2019-01-20T09:41:00.504Z,64.50
2019-01-20T09:43:47.088Z,64.30
2019-01-20T09:46:23.859Z,64.20
2019-01-20T09:49:04.659Z,64.10
2019-01-20T09:55:04.813Z,64.00
2019-01-20T09:57:45.421Z,63.40
2019-01-20T10:00:45.349Z,63.50
2019-01-20T10:06:42.851Z,62.70
2019-01-20T10:09:24.044Z,62.10
2019-01-20T10:12:04.464Z,61.60
2019-01-20T10:45:40.015Z,60.70
2019-01-20T10:54:40.911Z,61.50
2019-01-20T10:57:21.916Z,62.20
2019-01-20T11:00:02.644Z,62.40
2019-01-20T11:02:43.890Z,62.10
2019-01-20T11:05:30.133Z,61.90
2019-01-20T11:08:07.115Z,62.10
2019-01-20T11:10:48.116Z,62.00
2019-01-20T11:13:28.867Z,61.90
2019-01-20T11:16:09.543Z,62.60
2019-01-20T11:21:33.682Z,62.30
2019-01-20T11:24:13.841Z,61.80
2019-01-20T11:26:54.775Z,61.50
2019-01-20T11:29:35.946Z,61.30
2019-01-20T11:32:16.864Z,61.30
2019-01-20T11:34:57.813Z,61.30
2019-01-20T11:37:38.950Z,61.30
2019-01-20T11:40:19.572Z,61.40
2019-01-20T11:43:00.598Z,61.60
2019-01-20T11:45:41.132Z,61.50
2019-01-20T11:48:41.075Z,61.20
2019-01-20T11:51:21.677Z,61.70
2019-01-20T11:54:02.527Z,61.70
2019-01-20T12:00:02.411Z,61.50
2019-01-20T12:02:43.230Z,61.20
2019-01-20T12:05:23.671Z,60.90
2019-01-20T12:08:04.218Z,60.60
2019-01-20T12:10:45.342Z,60.30
2019-01-20T12:16:44.844Z,60.30
2019-01-20T12:19:25.642Z,61.00
2019-01-20T12:25:11.798Z,61.30
2019-01-20T12:27:52.396Z,61.00
2019-01-20T12:30:33.150Z,60.30
2019-01-20T12:36:49.815Z,60.10
2019-01-20T12:42:50.273Z,60.20
2019-01-20T12:48:13.454Z,60.10
2019-01-20T12:54:10.296Z,59.60
2019-01-20T13:00:26.333Z,59.60
2019-01-20T13:06:25.954Z,59.00
2019-01-20T13:15:54.480Z,60.10
2019-01-20T13:18:35.514Z,59.10
2019-01-20T13:24:20.736Z,58.80
2019-01-20T13:30:17.465Z,57.80
2019-01-20T13:36:15.290Z,56.70
2019-01-20T13:38:56.305Z,55.80
2019-01-20T13:41:57.774Z,55.70
2019-01-20T13:44:38.404Z,55.70
2019-01-20T13:47:20.156Z,56.00
2019-01-20T13:50:20.212Z,56.00
2019-01-20T13:58:57.257Z,56.10
2019-01-20T14:05:45.578Z,56.40
2019-01-20T14:08:33.690Z,57.10
2019-01-20T14:11:21.518Z,56.60
2019-01-20T14:14:09.361Z,57.10
2019-01-20T14:16:57.435Z,56.90
2019-01-20T14:19:45.304Z,57.20
2019-01-20T14:26:03.450Z,57.30
2019-01-20T14:28:51.647Z,57.40
2019-01-20T14:35:10.421Z,57.10
2019-01-20T14:37:58.238Z,56.90
2019-01-20T14:40:46.007Z,57.40
2019-01-20T14:43:34.093Z,57.30
2019-01-20T14:46:21.902Z,57.50
2019-01-20T14:52:24.085Z,57.50
2019-01-20T14:55:12.329Z,57.50
2019-01-20T14:58:00.426Z,57.50
2019-01-20T15:04:04.617Z,57.30
2019-01-20T15:10:09.639Z,57.40
2019-01-20T15:19:13.676Z,58.50
2019-01-20T15:21:54.585Z,58.60
2019-01-20T15:24:38.606Z,59.30
2019-01-20T15:30:02.117Z,59.40
2019-01-20T15:36:00.873Z,59.90
2019-01-20T15:38:42.279Z,60.20
2019-01-20T15:41:23.271Z,60.30
2019-01-20T15:44:04.684Z,60.40
2019-01-20T15:49:51.615Z,60.50
2019-01-20T16:02:00.617Z,61.40
2019-01-20T16:04:41.226Z,61.60
2019-01-20T16:10:30.189Z,61.80
2019-01-20T16:13:11.389Z,62.00
2019-01-20T16:18:57.520Z,62.20
2019-01-20T16:21:38.374Z,62.60
2019-01-20T16:24:19.481Z,62.50
2019-01-20T16:27:01.818Z,62.60
2019-01-20T16:29:43.094Z,62.50
2019-01-20T16:32:24.145Z,62.70
2019-01-20T16:35:04.675Z,62.80
2019-01-20T16:47:31.529Z,63.40
2019-01-20T16:59:36.864Z,63.90
2019-01-20T17:02:17.601Z,63.90
2019-01-20T17:14:10.551Z,64.40
2019-01-20T17:20:08.701Z,64.70
2019-01-20T17:22:49.424Z,64.70
2019-01-20T17:25:30.444Z,64.70
2019-01-20T17:31:49.421Z,64.90
2019-01-20T17:37:40.518Z,65.20
2019-01-20T17:40:28.431Z,65.10
2019-01-20T17:43:34.509Z,65.30
2019-01-20T17:46:22.304Z,65.50
2019-01-20T17:49:10.577Z,65.40
2019-01-20T17:51:58.388Z,65.60
2019-01-20T17:55:04.229Z,65.60
2019-01-20T17:57:52.256Z,65.70
2019-01-20T18:04:10.680Z,65.80
2019-01-20T18:06:58.785Z,66.00
2019-01-20T18:09:47.143Z,66.40
2019-01-20T18:12:53.422Z,66.40
2019-01-20T18:16:19.586Z,66.50
2019-01-20T18:19:07.371Z,66.70
2019-01-20T18:21:55.487Z,66.80
2019-01-20T18:24:43.710Z,66.90
2019-01-20T18:31:00.285Z,67.10
2019-01-20T18:37:28.280Z,67.30
2019-01-20T18:40:08.508Z,67.30
2019-01-20T18:45:53.278Z,67.60
2019-01-20T18:48:34.076Z,67.70
2019-01-20T18:51:15.071Z,67.90
2019-01-20T18:57:15.366Z,67.90
2019-01-20T18:59:56.593Z,67.90
2019-01-20T19:02:56.638Z,68.00
2019-01-20T19:09:15.295Z,68.30
2019-01-20T19:15:35.865Z,68.20
2019-01-20T19:18:19.153Z,68.20
2019-01-20T19:20:59.274Z,68.40
2019-01-20T19:33:12.213Z,68.50
2019-01-20T19:36:12.305Z,68.50
2019-01-20T19:38:53.199Z,68.40
2019-01-20T19:41:34.053Z,68.50
2019-01-20T19:44:15.250Z,68.60
2019-01-20T19:46:56.018Z,68.60
2019-01-20T19:49:38.192Z,68.70
2019-01-20T19:58:39.129Z,68.60
2019-01-20T20:43:58.168Z,68.70
2019-01-20T20:46:57.791Z,68.70
2019-01-20T21:45:06.183Z,68.40
2019-01-20T21:47:38.245Z,68.40
2019-01-20T21:50:09.736Z,68.40
2019-01-20T21:52:39.065Z,68.40
2019-01-20T21:55:07.909Z,68.40
2019-01-20T21:57:36.334Z,68.40
2019-01-20T22:00:13.922Z,68.30
2019-01-20T22:02:42.349Z,68.50
2019-01-20T22:05:11.495Z,68.80
2019-01-20T22:07:40.329Z,68.90
2019-01-20T22:10:14.903Z,68.90
2019-01-20T22:12:43.425Z,68.70
2019-01-20T22:15:12.899Z,68.70
2019-01-20T22:17:41.768Z,68.80
2019-01-20T22:20:12.949Z,68.90
2019-01-20T22:22:41.936Z,69.20
2019-01-20T22:25:12.325Z,69.30
2019-01-20T22:27:41.279Z,69.40
2019-01-20T22:30:21.238Z,69.60
2019-01-20T22:32:51.860Z,69.60
2019-01-20T22:35:20.456Z,69.50
2019-01-20T22:37:49.109Z,69.50
2019-01-20T22:40:18.804Z,69.30
2019-01-20T22:42:47.475Z,69.40
2019-01-20T22:45:18.166Z,69.60
2019-01-20T22:47:46.841Z,69.70
2019-01-20T22:50:15.653Z,69.70
2019-01-20T22:52:45.665Z,69.80
2019-01-20T22:55:16.215Z,69.80
2019-01-20T22:57:45.061Z,69.80
2019-01-20T23:00:22.642Z,69.80
2019-01-20T23:02:51.191Z,69.70
2019-01-20T23:05:19.978Z,69.70
2019-01-20T23:07:48.526Z,69.80
2019-01-20T23:10:16.963Z,69.90
2019-01-20T23:12:45.703Z,70.00
2019-01-20T23:15:14.231Z,69.90
2019-01-20T23:17:42.768Z,70.00
2019-01-20T23:20:16.510Z,70.20
2019-01-20T23:22:45.415Z,70.40
2019-01-20T23:25:14.013Z,70.50
2019-01-20T23:27:42.525Z,70.30
2019-01-20T23:30:13.944Z,70.60
2019-01-20T23:32:42.388Z,70.70
2019-01-20T23:35:10.969Z,70.70
2019-01-20T23:37:39.482Z,70.80
2019-01-20T23:40:15.795Z,70.80
2019-01-20T23:42:44.682Z,70.90
2019-01-20T23:45:13.708Z,70.80
2019-01-20T23:47:42.559Z,70.70
2019-01-20T23:50:13.488Z,70.90
2019-01-20T23:52:42.339Z,70.90
2019-01-20T23:55:12.728Z,71.00
2019-01-20T23:57:41.544Z,71.00
